Time;durP1;ratioP1;P1;durP2;ratioP2;P2;SDS_P1;SDS_P2;PMS_P1;PMS_P2;Temp;Humidity;BMP_temperature;BMP_pressure;BME280_temperature;BME280_humidity;BME280_pressure;Samples;Min_cycle;Max_cycle;Signal;HPM_P1;HPM_P2
2022/07/12 00:00:55;;;;;;;2.10;1.50;;;;;14.30;97691.80;;;;110698;1254;41271;-78
2022/07/12 00:03:24;;;;;;;1.70;1.40;;;;;14.22;97695.00;;;;110732;1254;42486;-77
2022/07/12 00:05:55;;;;;;;2.70;1.60;;;;;14.20;97692.00;;;;110549;1254;41262;-78
2022/07/12 00:08:24;;;;;;;2.00;1.40;;;;;14.10;97688.20;;;;110675;1254;41271;-77
2022/07/12 00:10:54;;;;;;;2.30;1.40;;;;;14.10;97689.20;;;;110751;1254;41256;-78
2022/07/12 00:13:24;;;;;;;2.60;1.60;;;;;14.00;97692.40;;;;110668;1254;41634;-79
2022/07/12 00:15:53;;;;;;;3.00;1.70;;;;;13.94;97688.40;;;;110729;1253;41289;-75
2022/07/12 00:18:23;;;;;;;2.40;1.50;;;;;13.90;97688.00;;;;110783;1251;42125;-78
2022/07/12 00:20:53;;;;;;;2.80;1.70;;;;;13.90;97695.00;;;;110697;1254;41253;-77
2022/07/12 00:23:24;;;;;;;3.20;1.40;;;;;13.80;97695.40;;;;110753;1254;41726;-78
2022/07/12 00:25:54;;;;;;;2.90;1.70;;;;;13.80;97696.20;;;;110723;1253;41268;-77
2022/07/12 00:28:24;;;;;;;3.70;1.70;;;;;13.70;97697.60;;;;110772;1253;41169;-81
2022/07/12 00:30:54;;;;;;;6.40;1.80;;;;;13.68;97697.80;;;;110761;1254;41693;-78
2022/07/12 00:33:25;;;;;;;4.10;1.90;;;;;13.60;97702.00;;;;110765;1253;41719;-78
2022/07/12 00:35:54;;;;;;;3.30;1.80;;;;;13.50;97699.00;;;;110637;1254;41178;-77
2022/07/12 00:38:25;;;;;;;4.10;1.90;;;;;13.36;97697.20;;;;110591;1254;41937;-78
2022/07/12 00:40:56;;;;;;;4.00;2.00;;;;;13.30;97698.20;;;;110616;1253;41283;-78
2022/07/12 00:43:26;;;;;;;5.30;2.10;;;;;13.10;97701.00;;;;110587;1254;41163;-77
2022/07/12 00:45:57;;;;;;;4.00;1.80;;;;;13.16;97706.40;;;;110779;1253;41406;-79
2022/07/12 00:48:26;;;;;;;2.60;1.70;;;;;13.10;97704.60;;;;110516;1257;41272;-79
2022/07/12 00:50:55;;;;;;;3.90;1.80;;;;;13.10;97699.60;;;;110663;1254;41254;-76
2022/07/12 00:53:25;;;;;;;3.80;1.80;;;;;13.06;97706.40;;;;110696;1254;42269;-78
2022/07/12 00:55:55;;;;;;;3.40;1.80;;;;;13.00;97702.80;;;;110709;1253;43038;-77
2022/07/12 00:58:28;;;;;;;3.90;1.80;;;;;13.00;97704.60;;;;110683;1254;41134;-79
2022/07/12 01:00:58;;;;;;;;;;;;;12.82;97706.00;;;;110861;1248;41428;-79
2022/07/12 01:03:29;;;;;;;3.20;1.80;;;;;12.66;97705.20;;;;110762;1251;41151;-75
2022/07/12 01:05:59;;;;;;;4.80;1.80;;;;;12.62;97708.40;;;;110668;1251;41274;-77
2022/07/12 01:08:31;;;;;;;3.30;1.90;;;;;12.60;97707.80;;;;110566;1254;41372;-78
2022/07/12 01:11:02;;;;;;;2.80;1.60;;;;;12.62;97706.00;;;;110639;1254;41159;-78
2022/07/12 01:13:35;;;;;;;4.80;2.00;;;;;12.60;97709.80;;;;110579;1254;41014;-74
2022/07/12 01:16:09;;;;;;;2.60;1.60;;;;;12.52;97712.60;;;;110465;1254;41154;-75
2022/07/12 01:18:39;;;;;;;2.20;1.60;;;;;12.50;97714.60;;;;110484;1254;42662;-78
2022/07/12 01:21:10;;;;;;;2.40;1.60;;;;;12.50;97711.60;;;;110676;1253;42503;-78
2022/07/12 01:23:40;;;;;;;2.50;1.50;;;;;12.46;97714.20;;;;110541;1254;42043;-75
2022/07/12 01:26:12;;;;;;;2.90;1.70;;;;;12.42;97713.80;;;;110864;1252;41850;-76
2022/07/12 01:28:42;;;;;;;4.00;1.80;;;;;12.40;97704.60;;;;110790;1251;41158;-77
2022/07/12 01:31:12;;;;;;;3.20;1.60;;;;;12.40;97706.00;;;;110522;1253;42044;-77
2022/07/12 01:33:42;;;;;;;2.60;1.60;;;;;12.38;97707.00;;;;110558;1254;41265;-78
2022/07/12 01:36:13;;;;;;;4.80;1.90;;;;;12.30;97696.60;;;;110609;1253;41949;-79
2022/07/12 01:38:43;;;;;;;5.20;2.10;;;;;12.20;97693.80;;;;110643;1254;42812;-79
2022/07/12 01:41:13;;;;;;;3.10;1.70;;;;;12.16;97694.60;;;;110742;1253;41700;-79
2022/07/12 01:43:42;;;;;;;2.90;1.70;;;;;12.10;97692.80;;;;110682;1253;42363;-77
2022/07/12 01:46:12;;;;;;;3.20;1.70;;;;;12.06;97697.20;;;;110660;1251;42101;-78
2022/07/12 01:48:42;;;;;;;2.30;1.60;;;;;12.00;97694.60;;;;110727;1251;41243;-78
2022/07/12 01:51:12;;;;;;;2.50;1.60;;;;;12.00;97695.40;;;;110612;1254;41267;-78
2022/07/12 01:53:42;;;;;;;4.10;1.70;;;;;12.00;97697.40;;;;110692;1252;41258;-78
2022/07/12 01:56:14;;;;;;;3.90;1.60;;;;;12.00;97697.20;;;;110590;1255;42072;-78
2022/07/12 01:58:44;;;;;;;3.20;1.60;;;;;11.90;97697.60;;;;110414;1255;41142;-78
2022/07/12 02:01:14;;;;;;;2.20;1.60;;;;;11.90;97694.40;;;;110588;1256;41749;-79
2022/07/12 02:03:46;;;;;;;3.00;1.70;;;;;11.82;97700.60;;;;110742;1254;42095;-79
2022/07/12 02:06:17;;;;;;;2.90;1.70;;;;;11.80;97691.40;;;;110659;1254;41262;-80
2022/07/12 02:08:47;;;;;;;3.60;1.70;;;;;11.80;97695.40;;;;110649;1254;41734;-77
2022/07/12 02:11:18;;;;;;;3.40;1.60;;;;;11.80;97700.60;;;;110621;1254;41615;-78
2022/07/12 02:13:48;;;;;;;2.70;1.60;;;;;11.74;97701.40;;;;110718;1256;41379;-81
2022/07/12 02:16:17;;;;;;;2.50;1.60;;;;;11.70;97702.00;;;;110372;1256;41962;-78
2022/07/12 02:18:47;;;;;;;4.20;1.90;;;;;11.70;97703.80;;;;110626;1254;41274;-78
2022/07/12 02:21:17;;;;;;;5.10;2.00;;;;;11.60;97707.40;;;;110440;1254;42033;-79
2022/07/12 02:23:46;;;;;;;5.30;2.10;;;;;11.50;97705.20;;;;110586;1254;41145;-78
2022/07/12 02:26:16;;;;;;;6.20;2.30;;;;;11.40;97708.80;;;;110661;1253;42307;-78
2022/07/12 02:28:45;;;;;;;4.30;2.20;;;;;11.20;97704.40;;;;110636;1254;41204;-78
2022/07/12 02:31:16;;;;;;;5.50;2.40;;;;;11.10;97703.00;;;;110679;1254;41146;-76
2022/07/12 02:33:46;;;;;;;6.00;2.30;;;;;11.00;97707.00;;;;110647;1254;41137;-78
2022/07/12 02:36:16;;;;;;;4.20;2.00;;;;;11.00;97710.20;;;;110565;1254;42390;-76
2022/07/12 02:38:48;;;;;;;5.00;2.20;;;;;11.00;97713.20;;;;110706;1253;41944;-76
2022/07/12 02:41:18;;;;;;;3.40;1.90;;;;;11.00;97709.20;;;;110650;1252;41255;-77
2022/07/12 02:43:47;;;;;;;3.30;1.70;;;;;11.00;97712.40;;;;110530;1254;41303;-77
2022/07/12 02:46:17;;;;;;;3.30;1.80;;;;;11.00;97711.20;;;;110582;1254;41176;-76
2022/07/12 02:48:47;;;;;;;3.20;1.80;;;;;11.00;97710.20;;;;110581;1254;41154;-77
2022/07/12 02:51:18;;;;;;;4.30;1.90;;;;;11.04;97713.60;;;;110557;1254;41176;-79
2022/07/12 02:53:48;;;;;;;2.90;1.80;;;;;11.10;97710.60;;;;110667;1253;41150;-79
2022/07/12 02:56:18;;;;;;;3.70;1.90;;;;;11.04;97713.40;;;;110639;1254;41729;-77
2022/07/12 02:58:48;;;;;;;3.50;1.90;;;;;11.10;97719.40;;;;110665;1254;41914;-78
2022/07/12 03:01:18;;;;;;;;;;;;;11.10;97721.00;;;;110692;1254;41224;-77
2022/07/12 03:03:48;;;;;;;5.40;2.10;;;;;11.10;97721.80;;;;110660;1254;42385;-77
2022/07/12 03:06:18;;;;;;;4.80;2.00;;;;;11.10;97718.80;;;;110636;1254;41815;-77
2022/07/12 03:08:49;;;;;;;4.20;1.90;;;;;11.12;97721.60;;;;110491;1254;41887;-77
2022/07/12 03:11:20;;;;;;;2.50;1.60;;;;;11.16;97724.20;;;;110595;1254;41150;-78
2022/07/12 03:13:50;;;;;;;4.50;1.80;;;;;11.20;97727.20;;;;110604;1256;41161;-79
2022/07/12 03:16:19;;;;;;;3.90;1.90;;;;;11.20;97727.40;;;;110465;1253;41146;-77
2022/07/12 03:18:48;;;;;;;4.30;2.00;;;;;11.20;97727.40;;;;110532;1254;41157;-78
2022/07/12 03:21:18;;;;;;;3.80;1.80;;;;;11.20;97725.20;;;;110562;1251;41170;-79
2022/07/12 03:23:49;;;;;;;4.50;2.10;;;;;11.20;97728.00;;;;110663;1255;40859;-79
2022/07/12 03:26:20;;;;;;;5.70;1.90;;;;;11.20;97730.80;;;;110578;1254;41720;-79
2022/07/12 03:28:50;;;;;;;3.00;1.60;;;;;11.20;97732.60;;;;110550;1254;41365;-79
2022/07/12 03:31:20;;;;;;;4.30;1.80;;;;;11.20;97734.20;;;;110635;1254;41161;-77
2022/07/12 03:33:49;;;;;;;3.30;1.80;;;;;11.20;97734.40;;;;110522;1254;40858;-79
2022/07/12 03:36:20;;;;;;;2.60;1.60;;;;;11.22;97740.40;;;;110566;1254;41778;-78
2022/07/12 03:38:49;;;;;;;4.00;1.80;;;;;11.30;97738.80;;;;110580;1256;41310;-80
2022/07/12 03:41:19;;;;;;;5.50;2.00;;;;;11.30;97740.00;;;;110717;1253;41710;-80
2022/07/12 03:43:49;;;;;;;6.10;2.60;;;;;11.40;97737.80;;;;110417;1254;41730;-81
2022/07/12 03:46:18;;;;;;;5.20;2.20;;;;;11.40;97741.00;;;;110399;1254;41493;-80
2022/07/12 03:48:48;;;;;;;4.70;2.10;;;;;11.48;97742.20;;;;110529;1254;41252;-81
2022/07/12 03:51:17;;;;;;;4.50;2.20;;;;;11.50;97739.20;;;;110627;1252;41314;-80
2022/07/12 03:53:47;;;;;;;5.90;2.30;;;;;11.50;97738.00;;;;110488;1254;41434;-77
2022/07/12 03:59:04;;;;;;;4.50;2.00;;;;;11.58;97739.60;;;;110621;1254;41261;-82
2022/07/12 04:01:33;;;;;;;3.00;1.90;;;;;11.60;97735.40;;;;110611;1254;41386;-82
2022/07/12 04:04:02;;;;;;;4.00;1.80;;;;;11.70;97740.40;;;;110634;1254;41267;-81
2022/07/12 04:06:33;;;;;;;3.20;1.70;;;;;11.72;97741.00;;;;110631;1254;41275;-83
2022/07/12 04:09:03;;;;;;;3.40;1.90;;;;;11.80;97742.40;;;;110673;1253;41743;-82
2022/07/12 04:11:33;;;;;;;;;;;;;11.90;97741.40;;;;110470;1256;41899;-81
2022/07/12 04:14:02;;;;;;;3.00;1.80;;;;;12.00;97738.40;;;;110730;1254;41147;-83
2022/07/12 04:16:32;;;;;;;5.30;2.10;;;;;12.10;97733.40;;;;110479;1254;41974;-81
2022/07/12 04:19:01;;;;;;;4.30;2.10;;;;;12.20;97726.20;;;;110652;1253;40913;-82
2022/07/12 04:21:31;;;;;;;6.20;2.00;;;;;12.40;97730.60;;;;110671;1254;41104;-81
2022/07/12 04:24:01;;;;;;;4.00;2.00;;;;;12.58;97734.20;;;;110593;1254;41250;-81
2022/07/12 04:26:30;;;;;;;6.80;2.00;;;;;12.84;97731.40;;;;110422;1255;41274;-82
2022/07/12 04:29:00;;;;;;;4.30;2.10;;;;;13.34;97734.40;;;;110749;1253;40890;-82
2022/07/12 04:31:30;;;;;;;4.50;2.00;;;;;13.92;97739.40;;;;110492;1256;41682;-82
2022/07/12 04:33:59;;;;;;;5.60;2.10;;;;;14.50;97739.60;;;;110669;1254;41062;-79
2022/07/12 04:36:28;;;;;;;3.90;1.70;;;;;15.20;97736.00;;;;110572;1254;41717;-81
2022/07/12 04:38:58;;;;;;;3.90;1.80;;;;;15.84;97732.00;;;;110642;1253;41149;-82
2022/07/12 04:41:27;;;;;;;7.20;2.50;;;;;16.50;97730.40;;;;110485;1254;41142;-82
2022/07/12 04:43:57;;;;;;;10.60;3.10;;;;;16.80;97722.00;;;;110436;1257;41278;-72
2022/07/12 04:46:26;;;;;;;7.90;2.80;;;;;16.80;97717.40;;;;110654;1253;41165;-81
2022/07/12 04:48:56;;;;;;;7.50;2.20;;;;;17.08;97720.80;;;;110551;1254;42469;-81
2022/07/12 04:51:26;;;;;;;9.10;2.60;;;;;17.50;97716.00;;;;110424;1256;41192;-78
2022/07/12 04:53:56;;;;;;;7.30;2.10;;;;;17.88;97717.00;;;;110465;1255;41202;-82
2022/07/12 04:56:25;;;;;;;6.60;2.50;;;;;18.30;97714.60;;;;110607;1253;41158;-81
2022/07/12 04:58:55;;;;;;;8.70;2.60;;;;;18.60;97704.00;;;;110463;1254;41320;-82
2022/07/12 05:01:32;;;;;;;5.00;2.40;;;;;18.66;97697.20;;;;110474;1254;41154;-78
2022/07/12 05:04:01;;;;;;;6.00;2.60;;;;;19.08;97696.00;;;;110407;1256;42050;-78
2022/07/12 05:06:30;;;;;;;5.60;2.30;;;;;19.10;97694.80;;;;110416;1256;42398;-78
2022/07/12 05:08:59;;;;;;;4.00;1.90;;;;;19.32;97691.60;;;;110582;1253;41134;-78
2022/07/12 05:11:29;;;;;;;4.30;1.90;;;;;19.30;97696.20;;;;110545;1254;41168;-76
2022/07/12 05:13:58;;;;;;;5.60;1.80;;;;;19.80;97693.40;;;;110537;1254;41162;-78
2022/07/12 05:16:28;;;;;;;5.20;2.00;;;;;20.40;97695.20;;;;110484;1254;41289;-77
2022/07/12 05:18:57;;;;;;;3.80;1.80;;;;;20.60;97687.60;;;;110486;1254;41948;-77
2022/07/12 05:21:26;;;;;;;3.60;1.90;;;;;21.10;97690.00;;;;110544;1256;41122;-78
2022/07/12 05:23:56;;;;;;;3.40;1.60;;;;;21.50;97690.20;;;;110405;1256;41166;-79
2022/07/12 05:26:25;;;;;;;2.80;1.60;;;;;22.00;97691.20;;;;110380;1256;41928;-78
2022/07/12 05:28:54;;;;;;;2.80;1.60;;;;;22.50;97692.80;;;;110521;1254;41164;-77
2022/07/12 05:31:24;;;;;;;4.20;1.90;;;;;22.86;97691.80;;;;110551;1254;41627;-74
2022/07/12 05:33:53;;;;;;;2.70;1.40;;;;;22.70;97693.00;;;;110326;1256;41234;-79
2022/07/12 05:36:22;;;;;;;6.30;1.70;;;;;22.60;97706.80;;;;110420;1256;41153;-80
2022/07/12 05:38:51;;;;;;;3.40;1.40;;;;;21.64;97718.40;;;;110610;1254;41166;-74
2022/07/12 05:41:21;;;;;;;2.10;1.30;;;;;20.80;97724.60;;;;110490;1257;42052;-74
2022/07/12 05:43:50;;;;;;;1.80;1.20;;;;;20.30;97724.40;;;;110593;1254;41166;-75
2022/07/12 05:46:20;;;;;;;2.00;1.30;;;;;20.00;97727.40;;;;110532;1255;41155;-75
2022/07/12 05:48:49;;;;;;;1.80;1.30;;;;;19.80;97725.60;;;;110607;1254;42602;-74
2022/07/12 05:54:06;;;;;;;1.40;1.30;;;;;19.60;97730.80;;;;110489;1256;41160;-74
2022/07/12 05:56:35;;;;;;;2.10;1.40;;;;;19.84;97730.40;;;;110412;1257;41229;-74
2022/07/12 05:59:04;;;;;;;1.90;1.20;;;;;20.20;97725.60;;;;110321;1256;43021;-74
2022/07/12 06:01:33;;;;;;;2.70;1.40;;;;;21.10;97723.40;;;;110502;1256;41175;-74
2022/07/12 06:04:03;;;;;;;3.50;1.40;;;;;22.24;97721.80;;;;110686;1254;41142;-75
2022/07/12 06:06:32;;;;;;;4.90;1.60;;;;;23.34;97718.80;;;;110670;1253;41159;-74
2022/07/12 06:09:02;;;;;;;2.80;1.20;;;;;24.04;97712.80;;;;110668;1253;41611;-75
2022/07/12 06:11:33;;;;;;;2.40;1.30;;;;;24.70;97711.60;;;;110584;1254;41990;-74
2022/07/12 06:14:02;;;;;;;2.00;1.30;;;;;25.32;97710.40;;;;110659;1252;41161;-75
2022/07/12 06:16:31;;;;;;;3.70;1.50;;;;;25.82;97712.80;;;;110510;1253;41648;-75
2022/07/12 06:19:00;;;;;;;4.10;1.30;;;;;26.38;97709.20;;;;110736;1253;41156;-74
2022/07/12 06:21:30;;;;;;;1.70;1.30;;;;;26.78;97707.20;;;;110620;1253;41207;-72
2022/07/12 06:23:59;;;;;;;4.20;1.10;;;;;27.08;97709.20;;;;110657;1253;41671;-75
2022/07/12 06:26:28;;;;;;;1.90;1.20;;;;;27.20;97699.60;;;;110486;1255;41692;-74
2022/07/12 06:28:57;;;;;;;2.80;1.20;;;;;26.12;97710.60;;;;110576;1254;41936;-75
2022/07/12 06:31:26;;;;;;;2.40;1.30;;;;;26.58;97718.60;;;;110655;1254;41312;-73
2022/07/12 06:34:00;;;;;;;1.70;1.10;;;;;26.98;97714.80;;;;110642;1254;42836;-76
2022/07/12 06:36:29;;;;;;;2.60;1.20;;;;;26.90;97709.80;;;;110691;1253;41329;-75
2022/07/12 06:38:58;;;;;;;1.70;1.10;;;;;27.50;97714.20;;;;110610;1254;41136;-74
2022/07/12 06:41:29;;;;;;;2.30;1.20;;;;;28.20;97703.20;;;;110638;1253;41281;-74
2022/07/12 06:43:58;;;;;;;1.70;1.20;;;;;28.82;97696.40;;;;110645;1254;41147;-74
2022/07/12 06:46:27;;;;;;;14.40;1.40;;;;;29.30;97699.80;;;;110666;1252;41409;-74
2022/07/12 06:48:56;;;;;;;1.90;1.10;;;;;29.70;97697.40;;;;110637;1253;42688;-75
2022/07/12 06:51:25;;;;;;;1.80;1.10;;;;;30.10;97699.40;;;;110640;1254;41172;-74
2022/07/12 06:53:54;;;;;;;2.20;1.20;;;;;30.26;97697.00;;;;110447;1254;41475;-73
2022/07/12 06:56:22;;;;;;;1.80;1.10;;;;;30.66;97695.40;;;;110547;1255;42031;-74
2022/07/12 06:58:51;;;;;;;2.30;1.20;;;;;30.70;97694.40;;;;110660;1253;42174;-74
2022/07/12 07:05:00;;;;;;;2.70;1.10;;;;;31.30;97690.20;;;;110632;1253;41165;-73
2022/07/12 07:07:47;;;;;;;1.30;0.90;;;;;30.64;97686.40;;;;110478;1256;41146;-75
2022/07/12 07:10:17;;;;;;;1.60;0.90;;;;;30.70;97690.60;;;;110695;1254;41197;-74
2022/07/12 07:12:47;;;;;;;1.60;1.00;;;;;30.74;97689.40;;;;110667;1254;41696;-74
2022/07/12 07:15:16;;;;;;;0.80;0.80;;;;;30.02;97691.60;;;;110710;1253;42370;-74
2022/07/12 07:17:45;;;;;;;2.80;1.10;;;;;28.88;97697.20;;;;110597;1254;41750;-75
2022/07/12 07:20:15;;;;;;;1.70;1.10;;;;;27.88;97707.40;;;;110623;1251;41220;-74
2022/07/12 07:22:44;;;;;;;1.60;1.00;;;;;26.86;97712.40;;;;110494;1256;41161;-72
2022/07/12 07:25:13;;;;;;;1.10;1.00;;;;;26.12;97727.00;;;;110588;1254;40897;-74
2022/07/12 07:27:44;;;;;;;1.90;1.00;;;;;25.46;97721.40;;;;110650;1254;41736;-74
2022/07/12 07:33:09;;;;;;;1.90;1.20;;;;;25.18;97720.80;;;;109770;1260;41286;-73
2022/07/12 07:35:38;;;;;;;1.40;1.00;;;;;24.96;97723.80;;;;109884;1262;42365;-74
2022/07/12 07:38:07;;;;;;;1.70;1.10;;;;;24.60;97727.20;;;;110162;1260;41169;-74
2022/07/12 07:40:36;;;;;;;1.60;1.10;;;;;24.50;97721.20;;;;110153;1262;41187;-73
2022/07/12 07:43:05;;;;;;;2.00;1.10;;;;;24.50;97722.80;;;;109625;1260;431654;-74
2022/07/12 07:45:35;;;;;;;2.50;1.40;;;;;24.50;97720.20;;;;110251;1259;41203;-74
2022/07/12 07:48:04;;;;;;;1.20;1.00;;;;;24.20;97722.40;;;;109997;1259;41916;-72
2022/07/12 07:50:50;;;;;;;1.10;1.00;;;;;23.30;97723.00;;;;110252;1259;41268;-74
2022/07/12 07:53:20;;;;;;;2.30;1.00;;;;;23.44;97723.00;;;;110297;1257;41151;-72
2022/07/12 07:55:48;;;;;;;1.70;1.10;;;;;23.64;97719.40;;;;110263;1260;41797;-72
2022/07/12 07:58:17;;;;;;;1.80;1.30;;;;;23.50;97722.60;;;;110398;1257;41149;-72
2022/07/12 08:00:49;;;;;;;1.10;1.00;;;;;23.60;97720.80;;;;110137;1260;41161;-72
2022/07/12 08:03:19;;;;;;;1.50;1.20;;;;;23.60;97728.80;;;;110349;1257;41155;-73
2022/07/12 08:05:50;;;;;;;2.40;1.20;;;;;23.60;97723.20;;;;110249;1257;41142;-74
2022/07/12 08:08:19;;;;;;;1.10;1.00;;;;;23.60;97723.20;;;;110442;1257;41146;-71
2022/07/12 08:10:52;;;;;;;2.10;1.20;;;;;23.70;97718.40;;;;110442;1257;42246;-72
2022/07/12 08:13:21;;;;;;;1.50;0.90;;;;;23.80;97724.40;;;;110426;1255;41266;-71
2022/07/12 08:15:50;;;;;;;1.40;1.00;;;;;24.08;97721.00;;;;110429;1257;41169;-73
2022/07/12 08:18:19;;;;;;;1.00;0.90;;;;;24.10;97728.20;;;;110460;1257;41272;-74
2022/07/12 08:20:48;;;;;;;3.30;1.20;;;;;24.10;97725.80;;;;110479;1257;41600;-73
2022/07/12 08:23:17;;;;;;;1.30;1.00;;;;;23.70;97731.40;;;;110446;1254;41263;-73
2022/07/12 08:25:46;;;;;;;2.90;1.30;;;;;23.60;97736.20;;;;110747;1251;41609;-72
2022/07/12 08:28:15;;;;;;;2.30;1.20;;;;;23.70;97735.80;;;;110804;1251;41148;-73
2022/07/12 08:30:44;;;;;;;1.70;1.10;;;;;23.60;97730.20;;;;110842;1250;41198;-73
2022/07/12 08:33:15;;;;;;;1.60;1.10;;;;;23.80;97731.20;;;;110881;1249;41615;-72
2022/07/12 08:35:44;;;;;;;1.60;0.90;;;;;23.90;97735.80;;;;110818;1250;41618;-73
2022/07/12 08:38:15;;;;;;;1.60;1.00;;;;;24.10;97736.20;;;;110770;1251;41125;-74
2022/07/12 08:40:44;;;;;;;2.50;1.10;;;;;24.00;97734.60;;;;110697;1252;41148;-74
2022/07/12 08:43:13;;;;;;;4.00;1.20;;;;;24.10;97732.20;;;;110830;1251;41148;-73
2022/07/12 08:45:43;;;;;;;1.30;1.00;;;;;24.22;97723.80;;;;110827;1251;41175;-73
2022/07/12 08:48:11;;;;;;;2.70;1.00;;;;;24.10;97727.40;;;;110789;1251;42551;-72
2022/07/12 08:50:41;;;;;;;2.00;1.00;;;;;24.10;97726.80;;;;110721;1251;41543;-73
2022/07/12 08:53:13;;;;;;;2.40;1.00;;;;;23.96;97727.40;;;;110804;1251;41146;-73
2022/07/12 08:55:42;;;;;;;1.50;1.10;;;;;23.80;97723.20;;;;110997;1251;41066;-73
2022/07/12 08:58:16;;;;;;;2.00;0.90;;;;;23.72;97719.40;;;;110826;1251;41258;-73
2022/07/12 09:00:45;;;;;;;0.80;0.80;;;;;23.74;97725.00;;;;110738;1253;41150;-73
2022/07/12 09:03:18;;;;;;;1.10;0.90;;;;;24.06;97727.80;;;;110897;1251;41469;-73
2022/07/12 09:05:52;;;;;;;3.00;1.20;;;;;24.22;97730.40;;;;110849;1251;41140;-73
2022/07/12 09:08:27;;;;;;;2.10;1.00;;;;;24.44;97729.20;;;;110758;1251;41259;-74
2022/07/12 09:11:00;;;;;;;1.90;1.00;;;;;24.82;97722.40;;;;110773;1251;41681;-73
2022/07/12 09:13:48;;;;;;;0.60;0.60;;;;;24.90;97729.00;;;;110848;1251;41145;-73
2022/07/12 09:16:20;;;;;;;1.80;0.80;;;;;25.28;97727.00;;;;110890;1251;41156;-74
2022/07/12 09:18:50;;;;;;;3.10;1.10;;;;;25.66;97719.80;;;;110793;1253;41170;-73
2022/07/12 09:21:27;;;;;;;2.00;1.20;;;;;26.00;97719.40;;;;110753;1252;41165;-73
2022/07/12 09:23:57;;;;;;;1.60;0.90;;;;;25.96;97725.60;;;;110863;1251;41161;-72
2022/07/12 09:26:33;;;;;;;1.40;0.90;;;;;25.72;97730.40;;;;110804;1251;41178;-71
2022/07/12 09:29:12;;;;;;;4.10;1.00;;;;;25.64;97725.80;;;;110699;1252;41628;-73
2022/07/12 09:37:25;;;;;;;1.30;0.90;;;;;23.78;97744.00;;;;110823;1251;41145;-73
2022/07/12 09:39:55;;;;;;;2.20;1.00;;;;;23.50;97741.40;;;;110879;1251;41142;-74
2022/07/12 09:42:25;;;;;;;1.90;0.90;;;;;23.56;97742.20;;;;110782;1251;41945;-72
2022/07/12 09:44:57;;;;;;;1.20;0.90;;;;;24.76;97729.20;;;;110705;1251;41749;-73
2022/07/12 09:47:26;;;;;;;1.00;0.80;;;;;25.88;97723.40;;;;110600;1253;41250;-74
2022/07/12 09:49:56;;;;;;;2.00;0.90;;;;;26.74;97715.60;;;;110829;1252;41240;-73
2022/07/12 09:52:26;;;;;;;0.80;0.70;;;;;27.30;97719.40;;;;110850;1251;40870;-73
2022/07/12 09:54:56;;;;;;;0.60;0.60;;;;;27.40;97727.00;;;;110691;1251;41133;-72
2022/07/12 09:57:33;;;;;;;4.20;0.90;;;;;26.90;97730.40;;;;110729;1251;41253;-72
2022/07/12 10:00:07;;;;;;;1.60;0.80;;;;;26.76;97727.40;;;;110852;1251;41604;-73
2022/07/12 10:02:39;;;;;;;0.90;0.70;;;;;26.72;97715.80;;;;110844;1251;41899;-72
2022/07/12 10:05:10;;;;;;;1.70;0.90;;;;;27.40;97723.80;;;;110666;1251;40905;-72
2022/07/12 10:07:39;;;;;;;1.00;0.80;;;;;26.98;97725.80;;;;110710;1251;41191;-72
2022/07/12 10:10:09;;;;;;;1.10;0.80;;;;;26.48;97722.60;;;;110635;1253;41158;-71
2022/07/12 10:12:40;;;;;;;1.40;0.90;;;;;26.46;97723.20;;;;110814;1250;41845;-72
2022/07/12 10:15:21;;;;;;;0.80;0.80;;;;;26.38;97716.60;;;;110758;1251;41924;-72
2022/07/12 10:17:55;;;;;;;1.60;0.90;;;;;26.60;97709.60;;;;110871;1253;41152;-72
2022/07/12 10:20:26;;;;;;;2.30;0.80;;;;;26.42;97710.60;;;;110790;1252;41623;-72
2022/07/12 10:23:16;;;;;;;0.80;0.70;;;;;25.94;97717.40;;;;110867;1251;42321;-74
2022/07/12 10:25:48;;;;;;;0.70;0.70;;;;;25.72;97714.20;;;;110924;1251;41880;-73
2022/07/12 10:28:17;;;;;;;0.80;0.80;;;;;26.62;97703.40;;;;110724;1251;41520;-74
2022/07/12 10:30:50;;;;;;;0.80;0.80;;;;;27.40;97702.80;;;;110650;1253;41259;-74
2022/07/12 10:33:23;;;;;;;1.80;0.90;;;;;27.80;97695.00;;;;110789;1251;41958;-72
2022/07/12 10:36:05;;;;;;;3.40;0.90;;;;;28.18;97694.80;;;;110943;1253;41237;-73
2022/07/12 10:38:41;;;;;;;0.60;0.60;;;;;27.52;97693.20;;;;110931;1250;41512;-73
2022/07/12 10:41:21;;;;;;;0.90;0.80;;;;;27.20;97695.40;;;;110885;1251;41158;-72
2022/07/12 10:44:10;;;;;;;0.80;0.80;;;;;27.66;97684.40;;;;110973;1250;41127;-73
2022/07/12 10:46:58;;;;;;;0.90;0.80;;;;;28.18;97686.60;;;;110829;1251;41618;-74
2022/07/12 10:49:29;;;;;;;2.90;0.90;;;;;28.90;97678.00;;;;110886;1252;41617;-74
2022/07/12 10:52:10;;;;;;;1.20;1.00;;;;;28.90;97675.40;;;;110871;1251;42641;-74
2022/07/12 10:54:55;;;;;;;1.60;0.80;;;;;29.08;97680.80;;;;110840;1251;41266;-75
2022/07/12 10:57:43;;;;;;;1.40;0.90;;;;;29.00;97687.20;;;;110906;1251;41002;-73
2022/07/12 11:00:13;;;;;;;2.40;1.00;;;;;28.28;97694.00;;;;110810;1251;41140;-73
2022/07/12 11:02:43;;;;;;;1.80;1.00;;;;;27.60;97695.80;;;;110911;1250;41140;-73
2022/07/12 11:05:12;;;;;;;1.60;0.90;;;;;26.80;97694.20;;;;110671;1253;41961;-74
2022/07/12 11:07:41;;;;;;;0.80;0.80;;;;;26.36;97702.00;;;;110885;1251;41933;-74
2022/07/12 11:10:12;;;;;;;2.80;1.10;;;;;25.74;97705.00;;;;110760;1253;42363;-74
2022/07/12 11:12:41;;;;;;;3.50;1.30;;;;;25.30;97709.00;;;;110888;1251;41430;-73
2022/07/12 11:15:10;;;;;;;1.50;0.90;;;;;24.82;97717.00;;;;110752;1252;41723;-72
2022/07/12 11:17:40;;;;;;;3.20;1.30;;;;;24.48;97712.40;;;;110727;1251;41154;-74
2022/07/12 11:20:13;;;;;;;0.60;0.60;;;;;25.68;97710.40;;;;110756;1251;41243;-73
2022/07/12 11:22:43;;;;;;;2.30;1.00;;;;;27.36;97707.00;;;;110761;1252;42207;-74
2022/07/12 11:25:12;;;;;;;2.70;1.00;;;;;28.82;97699.80;;;;110912;1251;41146;-75
2022/07/12 11:27:41;;;;;;;2.10;0.90;;;;;30.02;97696.40;;;;110897;1251;41484;-73
2022/07/12 11:30:13;;;;;;;1.00;0.70;;;;;31.08;97694.80;;;;110839;1252;41213;-73
2022/07/12 11:32:48;;;;;;;1.20;0.80;;;;;31.88;97692.80;;;;110671;1252;40933;-74
2022/07/12 11:35:23;;;;;;;;;;;;;32.88;97690.60;;;;110810;1251;41146;-75
2022/07/12 11:37:54;;;;;;;1.10;0.80;;;;;32.88;97694.40;;;;110794;1251;41382;-73
2022/07/12 11:40:28;;;;;;;0.90;0.80;;;;;32.72;97697.20;;;;110668;1253;41160;-74
2022/07/12 11:42:59;;;;;;;3.30;0.80;;;;;32.00;97691.20;;;;110713;1253;41650;-73
2022/07/12 11:45:30;;;;;;;1.10;0.70;;;;;31.04;97692.80;;;;110774;1251;41444;-71
2022/07/12 11:48:03;;;;;;;0.70;0.70;;;;;30.36;97694.40;;;;110733;1252;41937;-72
2022/07/12 11:50:34;;;;;;;2.50;0.70;;;;;29.90;97690.00;;;;110874;1251;41723;-76
2022/07/12 11:53:04;;;;;;;0.60;0.60;;;;;30.26;97690.20;;;;110835;1251;42447;-72
2022/07/12 11:55:42;;;;;;;0.80;0.60;;;;;30.56;97689.60;;;;110877;1251;42335;-72
2022/07/12 11:58:16;;;;;;;1.60;0.80;;;;;29.96;97688.40;;;;110674;1253;41366;-73
2022/07/12 12:00:46;;;;;;;0.70;0.70;;;;;28.98;97688.40;;;;110922;1251;41817;-73
2022/07/12 12:03:16;;;;;;;0.70;0.70;;;;;28.60;97692.20;;;;110814;1251;41257;-73
2022/07/12 12:05:50;;;;;;;0.70;0.60;;;;;28.38;97696.40;;;;110986;1250;41143;-71
2022/07/12 12:08:20;;;;;;;1.80;1.10;;;;;27.60;97714.60;;;;110896;1250;41297;-72
2022/07/12 12:10:54;;;;;;;3.00;1.20;;;;;27.08;97714.20;;;;110846;1252;41688;-71
2022/07/12 12:13:25;;;;;;;3.00;1.00;;;;;25.84;97712.20;;;;110844;1252;41898;-72
2022/07/12 12:16:00;;;;;;;;;;;;;25.44;97710.00;;;;110776;1251;40707;-71
2022/07/12 12:18:38;;;;;;;7.60;1.40;;;;;25.00;97710.20;;;;110947;1250;42230;-72
2022/07/12 12:21:11;;;;;;;6.90;1.20;;;;;23.94;97711.60;;;;110782;1251;41153;-73
2022/07/12 12:23:42;;;;;;;7.00;1.30;;;;;23.04;97718.40;;;;110845;1251;41256;-71
2022/07/12 12:26:21;;;;;;;1.60;1.10;;;;;22.78;97716.40;;;;110760;1253;41661;-71
2022/07/12 12:28:52;;;;;;;1.30;1.20;;;;;22.40;97709.80;;;;110848;1253;41615;-73
2022/07/12 12:31:23;;;;;;;2.10;1.20;;;;;22.40;97706.40;;;;110758;1253;41271;-73
2022/07/12 12:33:53;;;;;;;;;;;;;22.40;97709.20;;;;110718;1252;41149;-73
2022/07/12 12:36:27;;;;;;;2.20;1.20;;;;;22.56;97700.20;;;;110798;1251;41937;-72
2022/07/12 12:38:58;;;;;;;1.10;0.90;;;;;22.80;97688.00;;;;110682;1254;41554;-73
2022/07/12 12:41:28;;;;;;;3.20;1.20;;;;;22.90;97686.00;;;;110709;1251;40737;-72
2022/07/12 12:44:03;;;;;;;3.10;1.40;;;;;22.78;97689.20;;;;110675;1253;41151;-72